Greifenstein — OED3032 — position and weather

sailwx.info

Track history (hours):
 
Tides and Currents Weather Stations Pressure Air Temp Water Temp Dewpoint Dewpoint Depression Visibility Wind Speed Wind Dir Waves Ship Positions

Greifenstein

Last reported at 2018-Jun-12 22:47 UTC. Time now 2018-Jun-18 03:32 UTC.
Position N 44°30' E 022°12'.

Length 198 m; draft 0.2 m.

Type: Ship. MMSI: 203999441.

Date/timePositionNaut miles runAvg speedWind from/ knotsBaromVisibWave heightAir tempDewpointWater temp
2018-Jun-12 22:47N 44°30' E 022°12'2 6.3
2018-Jun-12 22:30N 44°29' E 022°11'3 5.9
2018-Jun-12 22:00N 44°29' E 022°07'3 6.3
2018-Jun-12 21:31N 44°31' E 022°04'3 6.4
2018-Jun-12 21:01N 44°34' E 022°02'17 5.7
2018-Jun-12 18:05N 44°41' E 021°40'1 6.4
2018-Jun-12 18:01N 44°41' E 021°40'3 6.4
2018-Jun-12 17:30N 44°43' E 021°37'3 6.3
2018-Jun-12 17:00N 44°46' E 021°34'4 0.9
2018-Jun-12 12:18N 44°47' E 021°28'2 6.6
2018-Jun-12 12:00N 44°46' E 021°26'7 5.0
2018-Jun-12 10:40N 44°48' E 021°16'1 6.3
2018-Jun-12 10:30N 44°47' E 021°15'3 6.4
2018-Jun-12 09:58N 44°46' E 021°11'6 6.3
2018-Jun-12 09:03N 44°43' E 021°04'0 6.5
2018-Jun-12 09:00N 44°43' E 021°03'3 6.3
2018-Jun-12 08:28N 44°43' E 020°59'3 6.6
2018-Jun-12 08:00N 44°40' E 020°56'11 5.8
2018-Jun-12 06:03N 44°44' E 020°40'0 6.5
2018-Jun-12 06:00N 44°44' E 020°40'3 6.1
2018-Jun-12 05:30N 44°47' E 020°38'3 6.4
2018-Jun-12 05:01N 44°50' E 020°39'3 5.7
2018-Jun-12 04:31N 44°51' E 020°35'3 6.4
2018-Jun-12 04:01N 44°50' E 020°31'3 6.6
2018-Jun-12 03:31N 44°50' E 020°27'4 7.1
2018-Jun-12 03:01N 44°52' E 020°22'3 6.9
2018-Jun-12 02:31N 44°55' E 020°20'4 7.2
2018-Jun-12 02:01N 44°58' E 020°17'3 6.5
2018-Jun-12 01:30N 45°00' E 020°21'3 6.4
2018-Jun-12 01:00N 45°03' E 020°21'4 7.2
2018-Jun-12 00:27N 45°07' E 020°18'3 7.3
2018-Jun-12 00:00N 45°09' E 020°15'4 7.2
2018-Jun-11 23:31N 45°11' E 020°11'4 7.2
2018-Jun-11 23:00N 45°10' E 020°06'4 7.2
2018-Jun-11 22:30N 45°11' E 020°01'3 6.9
2018-Jun-11 22:01N 45°12' E 019°57'3 6.1
2018-Jun-11 21:30N 45°15' E 019°54'0 0.1
2018-Jun-11 21:00N 45°15' E 019°54'0 0.0
2018-Jun-11 20:30N 45°15' E 019°54'0 0.0
2018-Jun-11 20:01N 45°15' E 019°54'0 0.4
2018-Jun-11 19:30N 45°15' E 019°54'3 5.7
2018-Jun-11 19:01N 45°14' E 019°51'0 0.6
2018-Jun-11 18:31N 45°14' E 019°50'2 4.5
2018-Jun-11 18:01N 45°16' E 019°52'2 3.9
2018-Jun-11 17:31N 45°15' E 019°54'2 4.0
2018-Jun-11 17:01N 45°16' E 019°51'2 4.8
2018-Jun-11 16:31N 45°14' E 019°50'1 2.5
2018-Jun-11 16:01N 45°14' E 019°51'2 3.8
2018-Jun-11 15:31N 45°16' E 019°53'1 2.3
2018-Jun-11 15:01N 45°15' E 019°54'3 5.3
2018-Jun-11 14:31N 45°14' E 019°51'0 0.4
2018-Jun-11 14:00N 45°14' E 019°51'2 4.6
2018-Jun-11 13:31N 45°16' E 019°52'2 3.3
2018-Jun-11 13:01N 45°15' E 019°54'2 4.6
2018-Jun-11 12:30N 45°14' E 019°51'1 2.4
2018-Jun-11 12:01N 45°13' E 019°50'0 0.1
2018-Jun-11 11:31N 45°13' E 019°50'2 4.5
2018-Jun-11 11:00N 45°14' E 019°47'4 7.3
2018-Jun-11 10:30N 45°14' E 019°41'7 6.0
2018-Jun-11 09:20N 45°15' E 019°31'3 7.4
2018-Jun-11 08:57N 45°14' E 019°28'3 7.6
2018-Jun-11 08:31N 45°14' E 019°23'4 7.6
2018-Jun-11 07:56N 45°14' E 019°17'130 4.4
2018-Jun-10 02:42N 47°24' E 019°02'2 9.1
2018-Jun-10 02:30N 47°26' E 019°03'4 8.3
2018-Jun-10 02:00N 47°30' E 019°03'59 5.4
2018-Jun-09 15:05N 47°48' E 017°39'6 9.6
2018-Jun-09 14:30N 47°52' E 017°34'2 3.3
2018-Jun-09 14:00N 47°53' E 017°32'0 0.8
2018-Jun-09 13:30N 47°53' E 017°32'0 0.1
2018-Jun-09 12:59N 47°53' E 017°32'0 0.0
2018-Jun-09 12:29N 47°53' E 017°32'0 0.0
2018-Jun-09 12:01N 47°53' E 017°32'3 5.6
2018-Jun-09 11:30N 47°55' E 017°29'4 8.9
2018-Jun-09 11:00N 47°58' E 017°24'4 8.4
2018-Jun-09 10:31N 48°00' E 017°19'4 8.6
2018-Jun-09 10:01N 48°02' E 017°13'5 9.5
2018-Jun-09 09:31N 48°06' E 017°08'4 8.2
2018-Jun-09 09:01N 48°09' E 017°04'5 9.3
2018-Jun-09 08:30N 48°09' E 016°57'19 9.4
2018-Jun-09 06:31N 48°11' E 016°29'0 0.0
2018-Jun-09 06:30N 48°11' E 016°29'0 0.8
2018-Jun-09 05:59N 48°11' E 016°28'85 5.6
2018-Jun-08 14:49N 48°16' E 014°22'0 0.1
2018-Jun-08 14:03N 48°16' E 014°22'0 0.1
2018-Jun-08 13:49N 48°16' E 014°22'1 0.9
2018-Jun-08 13:03N 48°17' E 014°21'0 0.3
2018-Jun-08 13:01N 48°17' E 014°21'2 3.7
2018-Jun-08 12:25N 48°19' E 014°19'0 0.0
2018-Jun-08 11:59N 48°19' E 014°19'0 0.0
2018-Jun-08 11:29N 48°19' E 014°19'0 0.0
2018-Jun-08 11:00N 48°19' E 014°19'0 0.0
2018-Jun-08 10:28N 48°19' E 014°19'0 0.0
2018-Jun-08 09:56N 48°19' E 014°19'0 0.0
2018-Jun-08 09:29N 48°19' E 014°19'0 0.0
2018-Jun-08 08:55N 48°19' E 014°19'0 0.0
2018-Jun-08 08:28N 48°19' E 014°19'0 0.0
2018-Jun-08 07:58N 48°19' E 014°19'0 0.0
2018-Jun-08 07:25N 48°19' E 014°19'0 0.0
2018-Jun-08 06:58N 48°19' E 014°19'0 0.0
2018-Jun-08 06:23N 48°19' E 014°19'0 0.7
2018-Jun-08 06:00N 48°19' E 014°19'0 0.0
2018-Jun-08 05:30N 48°19' E 014°19'0 0.0
2018-Jun-08 04:58N 48°19' E 014°19'0 0.0
2018-Jun-08 04:30N 48°19' E 014°19'1 1.1
2018-Jun-08 04:00N 48°19' E 014°20'2 0.2
2018-Jun-07 19:32N 48°17' E 014°21'0 1.1
2018-Jun-07 19:19N 48°17' E 014°21'83 2.9
2018-Jun-06 14:55N 48°13' E 016°25'0 0.0
2018-Jun-06 14:26N 48°13' E 016°25'3 0.9
2018-Jun-06 11:23N 48°11' E 016°28'1 1.4
2018-Jun-06 10:36N 48°10' E 016°29'10 1.8
2018-Jun-06 04:53N 48°08' E 016°44'1 2.0
2018-Jun-06 04:27N 48°08' E 016°45'1 1.8
2018-Jun-06 03:48N 48°07' E 016°47'1 1.8
2018-Jun-06 03:29N 48°07' E 016°48'1 2.1
2018-Jun-06 02:50N 48°07' E 016°50'1 1.7
2018-Jun-06 02:29N 48°07' E 016°50'2 2.0
2018-Jun-06 01:39N 48°08' E 016°53'0 2.0
2018-Jun-06 01:30N 48°08' E 016°53'1 2.0
2018-Jun-06 01:00N 48°09' E 016°54'1 2.0
2018-Jun-06 00:30N 48°09' E 016°56'1 1.9
2018-Jun-05 23:59N 48°10' E 016°57'1 2.0
2018-Jun-05 23:30N 48°10' E 016°58'1 1.8
2018-Jun-05 22:59N 48°10' E 016°59'1 1.1
2018-Jun-05 22:30N 48°10' E 016°60'1 1.7
2018-Jun-05 21:59N 48°09' E 017°01'1 2.1
2018-Jun-05 21:30N 48°08' E 017°02'1 2.2
2018-Jun-05 21:00N 48°09' E 017°03'1 2.5
2018-Jun-05 20:30N 48°08' E 017°05'1 2.9
2018-Jun-05 20:00N 48°08' E 017°07'1 3.0
2018-Jun-05 19:30N 48°07' E 017°09'2 3.7
2018-Jun-05 18:59N 48°05' E 017°09'0 0.1
2018-Jun-05 18:30N 48°05' E 017°09'2 4.9
2018-Jun-05 18:00N 48°08' E 017°09'1 1.1
2018-Jun-05 17:30N 48°07' E 017°09'2 3.9
2018-Jun-05 17:00N 48°05' E 017°09'1 1.8
2018-Jun-05 16:30N 48°04' E 017°10'3 5.9
2018-Jun-05 16:00N 48°03' E 017°13'3 6.7
2018-Jun-05 15:30N 48°00' E 017°17'3 6.9
2018-Jun-05 15:00N 47°60' E 017°22'4 7.2
2018-Jun-05 14:30N 47°57' E 017°26'4 7.2
2018-Jun-05 14:00N 47°55' E 017°30'2 4.9
2018-Jun-05 13:30N 47°53' E 017°32'1 1.0
2018-Jun-05 12:53N 47°52' E 017°33'5 6.0
2018-Jun-05 12:06N 47°49' E 017°37'21 2.5
2018-Jun-05 03:44N 47°45' E 018°08'0 0.5
2018-Jun-05 03:22N 47°45' E 018°09'0 0.4
2018-Jun-05 02:49N 47°45' E 018°08'3 1.2
2018-Jun-05 00:09N 47°44' E 018°13'  
Track history (hours):
 
Tides and Currents Weather Stations Pressure Air Temp Water Temp Dewpoint Dewpoint Depression Visibility Wind Speed Wind Dir Waves Ship Positions

Greifenstein

Last reported at 2018-Jun-12 22:47 UTC. Time now 2018-Jun-18 03:32 UTC.
Position N 44°30' E 022°12'.

Length 198 m; draft 0.2 m.

Type: Ship. MMSI: 203999441.

Date/timePositionNaut miles runAvg speedWind from/ knotsBaromVisibWave heightAir tempDewpointWater temp
2018-Jun-12 22:47N 44°30' E 022°12'2 6.3
2018-Jun-12 22:30N 44°29' E 022°11'3 5.9
2018-Jun-12 22:00N 44°29' E 022°07'3 6.3
2018-Jun-12 21:31N 44°31' E 022°04'3 6.4
2018-Jun-12 21:01N 44°34' E 022°02'17 5.7
2018-Jun-12 18:05N 44°41' E 021°40'1 6.4
2018-Jun-12 18:01N 44°41' E 021°40'3 6.4
2018-Jun-12 17:30N 44°43' E 021°37'3 6.3
2018-Jun-12 17:00N 44°46' E 021°34'4 0.9
2018-Jun-12 12:18N 44°47' E 021°28'2 6.6
2018-Jun-12 12:00N 44°46' E 021°26'7 5.0
2018-Jun-12 10:40N 44°48' E 021°16'1 6.3
2018-Jun-12 10:30N 44°47' E 021°15'3 6.4
2018-Jun-12 09:58N 44°46' E 021°11'6 6.3
2018-Jun-12 09:03N 44°43' E 021°04'0 6.5
2018-Jun-12 09:00N 44°43' E 021°03'3 6.3
2018-Jun-12 08:28N 44°43' E 020°59'3 6.6
2018-Jun-12 08:00N 44°40' E 020°56'11 5.8
2018-Jun-12 06:03N 44°44' E 020°40'0 6.5
2018-Jun-12 06:00N 44°44' E 020°40'3 6.1
2018-Jun-12 05:30N 44°47' E 020°38'3 6.4
2018-Jun-12 05:01N 44°50' E 020°39'3 5.7
2018-Jun-12 04:31N 44°51' E 020°35'3 6.4
2018-Jun-12 04:01N 44°50' E 020°31'3 6.6
2018-Jun-12 03:31N 44°50' E 020°27'4 7.1
2018-Jun-12 03:01N 44°52' E 020°22'3 6.9
2018-Jun-12 02:31N 44°55' E 020°20'4 7.2
2018-Jun-12 02:01N 44°58' E 020°17'3 6.5
2018-Jun-12 01:30N 45°00' E 020°21'3 6.4
2018-Jun-12 01:00N 45°03' E 020°21'4 7.2
2018-Jun-12 00:27N 45°07' E 020°18'3 7.3
2018-Jun-12 00:00N 45°09' E 020°15'4 7.2
2018-Jun-11 23:31N 45°11' E 020°11'4 7.2
2018-Jun-11 23:00N 45°10' E 020°06'4 7.2
2018-Jun-11 22:30N 45°11' E 020°01'3 6.9
2018-Jun-11 22:01N 45°12' E 019°57'3 6.1
2018-Jun-11 21:30N 45°15' E 019°54'0 0.1
2018-Jun-11 21:00N 45°15' E 019°54'0 0.0
2018-Jun-11 20:30N 45°15' E 019°54'0 0.0
2018-Jun-11 20:01N 45°15' E 019°54'0 0.4
2018-Jun-11 19:30N 45°15' E 019°54'3 5.7
2018-Jun-11 19:01N 45°14' E 019°51'0 0.6
2018-Jun-11 18:31N 45°14' E 019°50'2 4.5
2018-Jun-11 18:01N 45°16' E 019°52'2 3.9
2018-Jun-11 17:31N 45°15' E 019°54'2 4.0
2018-Jun-11 17:01N 45°16' E 019°51'2 4.8
2018-Jun-11 16:31N 45°14' E 019°50'1 2.5
2018-Jun-11 16:01N 45°14' E 019°51'2 3.8
2018-Jun-11 15:31N 45°16' E 019°53'1 2.3
2018-Jun-11 15:01N 45°15' E 019°54'3 5.3
2018-Jun-11 14:31N 45°14' E 019°51'0 0.4
2018-Jun-11 14:00N 45°14' E 019°51'2 4.6
2018-Jun-11 13:31N 45°16' E 019°52'2 3.3
2018-Jun-11 13:01N 45°15' E 019°54'2 4.6
2018-Jun-11 12:30N 45°14' E 019°51'1 2.4
2018-Jun-11 12:01N 45°13' E 019°50'0 0.1
2018-Jun-11 11:31N 45°13' E 019°50'2 4.5
2018-Jun-11 11:00N 45°14' E 019°47'4 7.3
2018-Jun-11 10:30N 45°14' E 019°41'7 6.0
2018-Jun-11 09:20N 45°15' E 019°31'3 7.4
2018-Jun-11 08:57N 45°14' E 019°28'3 7.6
2018-Jun-11 08:31N 45°14' E 019°23'4 7.6
2018-Jun-11 07:56N 45°14' E 019°17'130 4.4
2018-Jun-10 02:42N 47°24' E 019°02'2 9.1
2018-Jun-10 02:30N 47°26' E 019°03'4 8.3
2018-Jun-10 02:00N 47°30' E 019°03'59 5.4
2018-Jun-09 15:05N 47°48' E 017°39'6 9.6
2018-Jun-09 14:30N 47°52' E 017°34'2 3.3
2018-Jun-09 14:00N 47°53' E 017°32'0 0.8
2018-Jun-09 13:30N 47°53' E 017°32'0 0.1
2018-Jun-09 12:59N 47°53' E 017°32'0 0.0
2018-Jun-09 12:29N 47°53' E 017°32'0 0.0
2018-Jun-09 12:01N 47°53' E 017°32'3 5.6
2018-Jun-09 11:30N 47°55' E 017°29'4 8.9
2018-Jun-09 11:00N 47°58' E 017°24'4 8.4
2018-Jun-09 10:31N 48°00' E 017°19'4 8.6
2018-Jun-09 10:01N 48°02' E 017°13'5 9.5
2018-Jun-09 09:31N 48°06' E 017°08'4 8.2
2018-Jun-09 09:01N 48°09' E 017°04'5 9.3
2018-Jun-09 08:30N 48°09' E 016°57'19 9.4
2018-Jun-09 06:31N 48°11' E 016°29'0 0.0
2018-Jun-09 06:30N 48°11' E 016°29'0 0.8
2018-Jun-09 05:59N 48°11' E 016°28'85 5.6
2018-Jun-08 14:49N 48°16' E 014°22'0 0.1
2018-Jun-08 14:03N 48°16' E 014°22'0 0.1
2018-Jun-08 13:49N 48°16' E 014°22'1 0.9
2018-Jun-08 13:03N 48°17' E 014°21'0 0.3
2018-Jun-08 13:01N 48°17' E 014°21'2 3.7
2018-Jun-08 12:25N 48°19' E 014°19'0 0.0
2018-Jun-08 11:59N 48°19' E 014°19'0 0.0
2018-Jun-08 11:29N 48°19' E 014°19'0 0.0
2018-Jun-08 11:00N 48°19' E 014°19'0 0.0
2018-Jun-08 10:28N 48°19' E 014°19'0 0.0
2018-Jun-08 09:56N 48°19' E 014°19'0 0.0
2018-Jun-08 09:29N 48°19' E 014°19'0 0.0
2018-Jun-08 08:55N 48°19' E 014°19'0 0.0
2018-Jun-08 08:28N 48°19' E 014°19'0 0.0
2018-Jun-08 07:58N 48°19' E 014°19'0 0.0
2018-Jun-08 07:25N 48°19' E 014°19'0 0.0
2018-Jun-08 06:58N 48°19' E 014°19'0 0.0
2018-Jun-08 06:23N 48°19' E 014°19'0 0.7
2018-Jun-08 06:00N 48°19' E 014°19'0 0.0
2018-Jun-08 05:30N 48°19' E 014°19'0 0.0
2018-Jun-08 04:58N 48°19' E 014°19'0 0.0
2018-Jun-08 04:30N 48°19' E 014°19'1 1.1
2018-Jun-08 04:00N 48°19' E 014°20'2 0.2
2018-Jun-07 19:32N 48°17' E 014°21'0 1.1
2018-Jun-07 19:19N 48°17' E 014°21'83 2.9
2018-Jun-06 14:55N 48°13' E 016°25'0 0.0
2018-Jun-06 14:26N 48°13' E 016°25'3 0.9
2018-Jun-06 11:23N 48°11' E 016°28'1 1.4
2018-Jun-06 10:36N 48°10' E 016°29'10 1.8
2018-Jun-06 04:53N 48°08' E 016°44'1 2.0
2018-Jun-06 04:27N 48°08' E 016°45'1 1.8
2018-Jun-06 03:48N 48°07' E 016°47'1 1.8
2018-Jun-06 03:29N 48°07' E 016°48'1 2.1
2018-Jun-06 02:50N 48°07' E 016°50'1 1.7
2018-Jun-06 02:29N 48°07' E 016°50'2 2.0
2018-Jun-06 01:39N 48°08' E 016°53'0 2.0
2018-Jun-06 01:30N 48°08' E 016°53'1 2.0
2018-Jun-06 01:00N 48°09' E 016°54'1 2.0
2018-Jun-06 00:30N 48°09' E 016°56'1 1.9
2018-Jun-05 23:59N 48°10' E 016°57'1 2.0
2018-Jun-05 23:30N 48°10' E 016°58'1 1.8
2018-Jun-05 22:59N 48°10' E 016°59'1 1.1
2018-Jun-05 22:30N 48°10' E 016°60'1 1.7
2018-Jun-05 21:59N 48°09' E 017°01'1 2.1
2018-Jun-05 21:30N 48°08' E 017°02'1 2.2
2018-Jun-05 21:00N 48°09' E 017°03'1 2.5
2018-Jun-05 20:30N 48°08' E 017°05'1 2.9
2018-Jun-05 20:00N 48°08' E 017°07'1 3.0
2018-Jun-05 19:30N 48°07' E 017°09'2 3.7
2018-Jun-05 18:59N 48°05' E 017°09'0 0.1
2018-Jun-05 18:30N 48°05' E 017°09'2 4.9
2018-Jun-05 18:00N 48°08' E 017°09'1 1.1
2018-Jun-05 17:30N 48°07' E 017°09'2 3.9
2018-Jun-05 17:00N 48°05' E 017°09'1 1.8
2018-Jun-05 16:30N 48°04' E 017°10'3 5.9
2018-Jun-05 16:00N 48°03' E 017°13'3 6.7
2018-Jun-05 15:30N 48°00' E 017°17'3 6.9
2018-Jun-05 15:00N 47°60' E 017°22'4 7.2
2018-Jun-05 14:30N 47°57' E 017°26'4 7.2
2018-Jun-05 14:00N 47°55' E 017°30'2 4.9
2018-Jun-05 13:30N 47°53' E 017°32'1 1.0
2018-Jun-05 12:53N 47°52' E 017°33'5 6.0
2018-Jun-05 12:06N 47°49' E 017°37'21 2.5
2018-Jun-05 03:44N 47°45' E 018°08'0 0.5
2018-Jun-05 03:22N 47°45' E 018°09'0 0.4
2018-Jun-05 02:49N 47°45' E 018°08'3 1.2
2018-Jun-05 00:09N 47°44' E 018°13'  

Dump ship's entire track history